Time;durP1;ratioP1;P1;durP2;ratioP2;P2;SDS_P1;SDS_P2;PMS_P1;PMS_P2;Temp;Humidity;BMP_temperature;BMP_pressure;BME280_temperature;BME280_humidity;BME280_pressure;Samples;Min_cycle;Max_cycle;Signal;HPM_P1;HPM_P2
2022/03/27 00:02:08;;;;;;;3.03;2.80;;;10.10;99.90;;;;;;5032886;28;20167;-69
2022/03/27 00:04:33;;;;;;;1.73;1.20;;;10.20;99.90;;;;;;5033323;28;20183;-70
2022/03/27 00:06:59;;;;;;;2.57;1.33;;;10.10;99.90;;;;;;5033313;28;20177;-69
2022/03/27 00:09:24;;;;;;;1.23;0.90;;;10.10;99.90;;;;;;5033377;28;20212;-69
2022/03/27 00:11:50;;;;;;;1.10;0.83;;;10.10;99.90;;;;;;5032822;28;20163;-69
2022/03/27 00:14:15;;;;;;;1.90;1.80;;;10.10;99.90;;;;;;5031484;28;20534;-69
2022/03/27 00:16:41;;;;;;;2.27;1.93;;;10.00;99.90;;;;;;5032904;28;20539;-68
2022/03/27 00:19:07;;;;;;;5.07;4.43;;;10.00;99.90;;;;;;5033094;28;20170;-68
2022/03/27 00:21:33;;;;;;;1.93;1.20;;;10.00;99.90;;;;;;5032449;28;20176;-69
2022/03/27 00:23:58;;;;;;;3.37;1.17;;;10.00;99.90;;;;;;5032500;28;20160;-69
2022/03/27 00:26:24;;;;;;;2.30;0.97;;;10.00;99.90;;;;;;5032371;28;20896;-69
2022/03/27 00:28:50;;;;;;;1.83;1.37;;;10.00;99.90;;;;;;5032868;28;20168;-69
2022/03/27 00:31:17;;;;;;;1.53;1.10;;;10.00;99.90;;;;;;5032236;28;20216;-70
2022/03/27 00:33:45;;;;;;;1.77;0.87;;;10.00;99.90;;;;;;5032624;28;20496;-69
2022/03/27 00:36:13;;;;;;;1.83;1.67;;;9.90;99.90;;;;;;5031597;28;20497;-69
2022/03/27 00:38:40;;;;;;;1.20;1.10;;;9.90;99.90;;;;;;5032596;28;20425;-69
2022/03/27 00:41:05;;;;;;;1.40;1.30;;;9.90;99.90;;;;;;5032421;28;20515;-70
2022/03/27 00:43:33;;;;;;;3.70;2.23;;;9.90;99.90;;;;;;5032634;28;20434;-70
2022/03/27 00:45:59;;;;;;;1.20;1.10;;;9.90;99.90;;;;;;5032220;28;20479;-69
2022/03/27 00:48:25;;;;;;;0.90;0.80;;;9.80;99.90;;;;;;5031079;28;20923;-68
2022/03/27 00:50:53;;;;;;;0.80;0.70;;;9.80;99.90;;;;;;5032039;28;20174;-69
2022/03/27 00:53:19;;;;;;;1.37;1.13;;;9.80;99.90;;;;;;5032157;28;20437;-69
2022/03/27 00:55:45;;;;;;;1.30;1.20;;;9.80;99.90;;;;;;5032423;28;20454;-69
2022/03/27 00:58:12;;;;;;;0.70;0.50;;;9.80;99.90;;;;;;5032205;28;20457;-69
2022/03/27 01:00:38;;;;;;;1.10;0.60;;;9.70;99.90;;;;;;5031983;28;20395;-69
2022/03/27 01:03:12;;;;;;;1.47;1.37;;;9.70;99.90;;;;;;5032105;28;20424;-69
2022/03/27 01:05:38;;;;;;;2.57;2.40;;;9.70;99.90;;;;;;5032051;28;20191;-70
2022/03/27 01:08:09;;;;;;;0.97;0.70;;;9.70;99.90;;;;;;5032272;28;20398;-70
2022/03/27 01:10:35;;;;;;;3.70;2.90;;;9.70;99.90;;;;;;5030651;28;20525;-70
2022/03/27 01:13:16;;;;;;;2.50;0.90;;;9.60;99.90;;;;;;5031922;28;20414;-69
2022/03/27 01:16:31;;;;;;;1.10;1.00;;;9.70;99.90;;;;;;5030639;28;20522;-69
2022/03/27 01:18:59;;;;;;;1.00;0.60;;;9.60;99.90;;;;;;5012365;28;20426;-70
2022/03/27 01:21:25;;;;;;;1.37;0.93;;;9.60;99.90;;;;;;5031647;28;20482;-70
2022/03/27 01:23:53;;;;;;;1.27;0.93;;;9.60;99.90;;;;;;5031912;28;20903;-69
2022/03/27 01:26:18;;;;;;;0.87;0.60;;;9.60;99.90;;;;;;5031983;28;20931;-69
2022/03/27 01:28:44;;;;;;;4.47;2.03;;;9.50;99.90;;;;;;5031976;28;20398;-69
2022/03/27 01:31:09;;;;;;;1.57;1.00;;;9.50;99.90;;;;;;5031877;28;20241;-68
2022/03/27 01:33:35;;;;;;;3.33;2.87;;;9.50;99.90;;;;;;5031904;28;20170;-69
2022/03/27 01:36:01;;;;;;;3.67;2.47;;;9.50;99.90;;;;;;5031880;28;20780;-69
2022/03/27 01:38:27;;;;;;;2.13;1.93;;;9.50;99.90;;;;;;5031725;28;20199;-69
2022/03/27 01:40:53;;;;;;;2.37;1.07;;;9.50;99.90;;;;;;5031648;28;20163;-70
2022/03/27 01:43:18;;;;;;;0.90;0.60;;;9.50;99.90;;;;;;5031786;28;20401;-69
2022/03/27 01:45:44;;;;;;;0.80;0.50;;;9.40;99.90;;;;;;5031692;28;20232;-69
2022/03/27 01:48:09;;;;;;;1.53;1.30;;;9.40;99.90;;;;;;5033550;28;20207;-70
2022/03/27 01:50:35;;;;;;;0.80;0.80;;;9.40;99.90;;;;;;5035856;28;20687;-69
2022/03/27 01:53:01;;;;;;;1.00;0.70;;;9.40;99.90;;;;;;5035580;28;20163;-69
2022/03/27 01:55:26;;;;;;;0.80;0.57;;;9.40;99.90;;;;;;5035380;28;20629;-69
2022/03/27 01:57:52;;;;;;;0.90;0.80;;;9.40;99.90;;;;;;5035690;28;20238;-69
2022/03/27 02:00:17;;;;;;;1.53;1.43;;;9.40;99.90;;;;;;5035148;28;20172;-69
2022/03/27 02:02:43;;;;;;;1.20;0.80;;;9.30;99.90;;;;;;5035661;28;20175;-71
2022/03/27 02:05:09;;;;;;;2.60;2.40;;;9.30;99.90;;;;;;5035291;28;20180;-69
2022/03/27 02:07:36;;;;;;;3.57;3.33;;;9.30;99.90;;;;;;5035415;28;20714;-68
2022/03/27 02:10:03;;;;;;;3.07;2.17;;;9.30;99.90;;;;;;5033947;28;20414;-68
2022/03/27 02:12:29;;;;;;;1.63;1.13;;;9.30;99.90;;;;;;5035209;28;20433;-69
2022/03/27 02:14:56;;;;;;;1.10;0.93;;;9.30;99.90;;;;;;5034990;28;20426;-69
2022/03/27 02:17:21;;;;;;;0.80;0.60;;;9.30;99.90;;;;;;5035149;28;20187;-69
2022/03/27 02:19:47;;;;;;;2.40;1.53;;;9.20;99.90;;;;;;5035140;28;20413;-69
2022/03/27 02:22:12;;;;;;;2.10;2.00;;;9.20;99.90;;;;;;5034800;28;20213;-70
2022/03/27 02:24:38;;;;;;;1.20;1.10;;;9.20;99.90;;;;;;5034828;28;20704;-69
2022/03/27 02:27:04;;;;;;;0.80;0.60;;;9.20;99.90;;;;;;5033839;28;20176;-69
2022/03/27 02:29:30;;;;;;;2.70;1.13;;;9.20;99.90;;;;;;5034932;28;20179;-70
2022/03/27 02:31:56;;;;;;;1.67;1.00;;;9.20;99.90;;;;;;5034617;28;20411;-69
2022/03/27 02:34:21;;;;;;;1.03;0.97;;;9.20;99.90;;;;;;5034580;28;20787;-69
2022/03/27 02:36:47;;;;;;;0.80;0.60;;;9.20;99.90;;;;;;5034836;28;20195;-70
2022/03/27 02:39:12;;;;;;;0.90;0.70;;;9.20;99.90;;;;;;5034950;28;20564;-69
2022/03/27 02:41:38;;;;;;;1.83;1.33;;;9.10;99.90;;;;;;5034441;28;20163;-70
2022/03/27 02:44:04;;;;;;;1.07;0.97;;;9.10;99.90;;;;;;5034518;28;20171;-69
2022/03/27 02:46:29;;;;;;;0.90;0.67;;;9.10;99.90;;;;;;5033292;28;20168;-70
2022/03/27 02:48:55;;;;;;;1.27;1.17;;;9.10;99.90;;;;;;5034587;28;20775;-68
2022/03/27 02:51:20;;;;;;;1.10;0.97;;;9.10;99.90;;;;;;5034251;28;20167;-69
2022/03/27 02:53:46;;;;;;;0.87;0.77;;;9.10;99.90;;;;;;5034393;28;20187;-68
2022/03/27 02:56:11;;;;;;;2.23;1.37;;;9.00;99.90;;;;;;5034672;28;20245;-69
2022/03/27 02:58:37;;;;;;;1.10;0.80;;;9.10;99.90;;;;;;5034301;28;20254;-68
2022/03/27 03:01:04;;;;;;;1.00;0.90;;;9.00;99.90;;;;;;5033071;28;20196;-69
2022/03/27 03:03:30;;;;;;;1.27;1.17;;;9.00;99.90;;;;;;5034139;28;20489;-68
2022/03/27 03:05:57;;;;;;;1.17;0.80;;;9.00;99.90;;;;;;5034179;28;20484;-68
2022/03/27 03:08:24;;;;;;;1.13;0.80;;;9.00;99.90;;;;;;5034266;28;20167;-69
2022/03/27 03:10:50;;;;;;;0.97;0.63;;;9.00;99.90;;;;;;5034012;28;20432;-69
2022/03/27 03:13:16;;;;;;;2.63;2.43;;;9.00;99.90;;;;;;5034070;28;20895;-69
2022/03/27 03:15:42;;;;;;;0.80;0.80;;;9.00;99.90;;;;;;5034002;28;20191;-70
2022/03/27 03:18:10;;;;;;;0.90;0.70;;;9.00;99.90;;;;;;5034040;28;20203;-69
2022/03/27 03:20:36;;;;;;;1.23;0.70;;;9.00;99.90;;;;;;5033638;28;20411;-69
2022/03/27 03:23:02;;;;;;;2.77;1.53;;;9.00;99.90;;;;;;5033683;28;20768;-69
2022/03/27 03:25:27;;;;;;;0.70;0.50;;;8.90;99.90;;;;;;5033937;28;20425;-68
2022/03/27 03:27:53;;;;;;;0.90;0.80;;;8.90;99.90;;;;;;5033733;28;20508;-69
2022/03/27 03:30:18;;;;;;;1.70;1.10;;;8.90;99.90;;;;;;5033631;28;20163;-69
2022/03/27 03:32:44;;;;;;;1.67;1.57;;;8.90;99.90;;;;;;5033618;28;20175;-69
2022/03/27 03:35:11;;;;;;;0.80;0.60;;;8.90;99.90;;;;;;5033648;28;20195;-69
2022/03/27 03:37:37;;;;;;;0.80;0.60;;;8.90;99.90;;;;;;5033600;28;20475;-68
2022/03/27 03:40:07;;;;;;;0.70;0.50;;;8.80;99.90;;;;;;5033651;28;20416;-69
2022/03/27 03:42:34;;;;;;;0.80;0.70;;;8.90;99.90;;;;;;5033163;28;20175;-69
2022/03/27 03:44:59;;;;;;;0.80;0.50;;;8.80;99.90;;;;;;5033433;28;20513;-68
2022/03/27 03:47:25;;;;;;;1.00;0.90;;;8.80;99.90;;;;;;5033310;28;20515;-69
2022/03/27 03:49:50;;;;;;;1.00;0.90;;;8.80;99.90;;;;;;5033477;28;20176;-69
2022/03/27 03:52:16;;;;;;;1.10;0.90;;;8.80;99.90;;;;;;5033153;28;20168;-69
2022/03/27 03:54:41;;;;;;;1.23;0.90;;;8.80;99.90;;;;;;5033199;28;20218;-69
2022/03/27 03:57:07;;;;;;;4.83;2.00;;;8.80;99.90;;;;;;5033188;28;20534;-68
2022/03/27 03:59:33;;;;;;;1.10;0.90;;;8.80;99.90;;;;;;5033245;28;20171;-69
2022/03/27 04:01:59;;;;;;;0.80;0.50;;;8.70;99.90;;;;;;5032889;28;20533;-68
2022/03/27 04:04:26;;;;;;;1.77;1.67;;;8.70;99.90;;;;;;5033152;28;20289;-69
2022/03/27 04:06:51;;;;;;;1.10;1.00;;;8.70;99.90;;;;;;5033095;28;20957;-69
2022/03/27 04:09:17;;;;;;;1.50;1.40;;;8.70;99.90;;;;;;5033037;28;20501;-69
2022/03/27 04:11:44;;;;;;;1.73;1.10;;;8.60;99.90;;;;;;5031308;28;20203;-68
2022/03/27 04:14:09;;;;;;;0.80;0.70;;;8.60;99.90;;;;;;5033015;28;20409;-69
2022/03/27 04:16:35;;;;;;;0.70;0.50;;;8.60;99.90;;;;;;5031701;28;20449;-68
2022/03/27 04:19:00;;;;;;;0.80;0.70;;;8.60;99.90;;;;;;5033140;28;20174;-68
2022/03/27 04:21:26;;;;;;;4.00;1.23;;;8.60;99.90;;;;;;5032974;28;20163;-69
2022/03/27 04:23:52;;;;;;;0.70;0.60;;;8.50;99.90;;;;;;5033085;28;20243;-70
2022/03/27 04:26:17;;;;;;;1.33;1.23;;;8.50;99.90;;;;;;5033042;28;20546;-71
2022/03/27 04:28:43;;;;;;;0.97;0.97;;;8.50;99.90;;;;;;5032731;28;20170;-72
2022/03/27 04:31:09;;;;;;;2.00;1.83;;;8.50;99.90;;;;;;5032457;28;20172;-71
2022/03/27 04:33:34;;;;;;;0.80;0.73;;;8.50;99.90;;;;;;5032588;28;20704;-71
2022/03/27 04:36:02;;;;;;;3.40;1.27;;;8.50;99.90;;;;;;5032536;28;20271;-71
2022/03/27 04:38:27;;;;;;;0.80;0.60;;;8.50;99.90;;;;;;5032445;28;20568;-71
2022/03/27 04:40:53;;;;;;;1.73;0.90;;;8.50;99.90;;;;;;5030992;28;20407;-71
2022/03/27 04:43:18;;;;;;;1.83;1.73;;;8.40;99.90;;;;;;5032335;28;20266;-69
2022/03/27 04:45:44;;;;;;;1.10;1.00;;;8.40;99.90;;;;;;5032336;28;20184;-69
2022/03/27 04:48:09;;;;;;;0.70;0.50;;;8.40;99.90;;;;;;5032395;28;20219;-69
2022/03/27 04:50:35;;;;;;;2.20;2.10;;;8.40;99.90;;;;;;5032130;28;20203;-70
2022/03/27 04:53:00;;;;;;;1.43;1.33;;;8.40;99.90;;;;;;5032315;28;20203;-69
2022/03/27 04:55:26;;;;;;;1.43;1.07;;;8.40;99.90;;;;;;5032226;28;20199;-69
2022/03/27 04:57:51;;;;;;;0.90;0.70;;;8.40;99.90;;;;;;5032177;28;20340;-69
2022/03/27 05:00:17;;;;;;;1.20;1.07;;;8.40;99.90;;;;;;5032180;28;20645;-68
2022/03/27 05:02:44;;;;;;;0.87;0.70;;;8.40;99.90;;;;;;5031959;28;20171;-69
2022/03/27 05:05:11;;;;;;;1.60;1.50;;;8.30;99.90;;;;;;5032046;28;20187;-69
2022/03/27 05:07:38;;;;;;;2.60;2.50;;;8.30;99.90;;;;;;5031878;28;20435;-69
2022/03/27 05:10:05;;;;;;;2.27;0.90;;;8.30;99.90;;;;;;5031971;28;20419;-68
2022/03/27 05:12:30;;;;;;;0.80;0.63;;;8.30;99.90;;;;;;5030374;28;20417;-69
2022/03/27 05:14:56;;;;;;;1.73;1.33;;;8.30;99.90;;;;;;5031887;28;20426;-68
2022/03/27 05:17:22;;;;;;;0.70;0.50;;;8.30;99.90;;;;;;5030679;28;20199;-69
2022/03/27 05:19:47;;;;;;;0.80;0.60;;;8.30;99.90;;;;;;5031871;28;20218;-68
2022/03/27 05:22:13;;;;;;;1.03;0.93;;;8.30;99.90;;;;;;5031327;28;20577;-68
2022/03/27 05:24:38;;;;;;;1.57;1.47;;;8.30;99.90;;;;;;5031762;28;20648;-69
2022/03/27 05:27:04;;;;;;;0.77;0.63;;;8.30;99.90;;;;;;5031867;28;20629;-68
2022/03/27 05:29:30;;;;;;;1.43;1.33;;;8.30;99.90;;;;;;5031870;28;20233;-68
2022/03/27 05:31:57;;;;;;;0.80;0.70;;;8.30;99.90;;;;;;5031643;28;20225;-69
2022/03/27 05:34:23;;;;;;;1.47;1.37;;;8.30;99.90;;;;;;5031772;28;20183;-69
2022/03/27 05:36:48;;;;;;;1.10;1.00;;;8.40;99.90;;;;;;5030365;28;20560;-68
2022/03/27 05:39:14;;;;;;;1.10;0.93;;;8.40;99.90;;;;;;5031784;28;20168;-68
2022/03/27 05:41:39;;;;;;;1.20;1.10;;;8.40;99.90;;;;;;5031536;28;20186;-69
2022/03/27 05:44:05;;;;;;;1.60;1.50;;;8.40;99.90;;;;;;5031795;28;20649;-68
2022/03/27 05:46:31;;;;;;;0.70;0.60;;;8.50;99.90;;;;;;5031553;28;20167;-68
2022/03/27 05:48:56;;;;;;;1.13;0.77;;;8.50;99.90;;;;;;5031608;28;20283;-69
2022/03/27 05:51:22;;;;;;;1.50;1.23;;;8.60;99.90;;;;;;5031405;28;20648;-68
2022/03/27 05:53:47;;;;;;;0.80;0.63;;;8.70;99.90;;;;;;5031490;28;20172;-69
2022/03/27 05:56:13;;;;;;;3.27;0.87;;;8.80;99.90;;;;;;5031684;28;20653;-69
2022/03/27 05:58:38;;;;;;;0.77;0.57;;;8.90;99.90;;;;;;5031646;28;20515;-68
2022/03/27 06:01:05;;;;;;;1.13;1.03;;;9.10;99.90;;;;;;5031386;28;20641;-70
2022/03/27 06:03:31;;;;;;;1.20;1.10;;;9.30;99.90;;;;;;5031546;28;20176;-69
2022/03/27 06:05:56;;;;;;;0.80;0.70;;;9.50;99.90;;;;;;5031535;28;20475;-69
2022/03/27 06:08:22;;;;;;;2.13;2.03;;;9.70;99.90;;;;;;5031518;28;20178;-69
2022/03/27 06:10:49;;;;;;;3.07;2.53;;;10.00;99.90;;;;;;5031266;28;20560;-69
2022/03/27 06:13:16;;;;;;;1.10;1.00;;;10.30;99.90;;;;;;5031505;28;20652;-69
2022/03/27 06:15:41;;;;;;;2.60;2.40;;;10.70;99.90;;;;;;5031488;28;20790;-69
2022/03/27 06:18:10;;;;;;;1.70;1.50;;;11.20;99.90;;;;;;5031302;28;20532;-69
2022/03/27 06:20:37;;;;;;;2.60;2.50;;;11.70;99.90;;;;;;5031292;28;20168;-69
2022/03/27 06:23:03;;;;;;;2.30;1.57;;;12.20;99.90;;;;;;5031320;28;20485;-69
2022/03/27 06:25:29;;;;;;;1.70;1.27;;;12.70;99.90;;;;;;5031242;28;20421;-69
2022/03/27 06:27:56;;;;;;;2.93;2.03;;;13.10;99.90;;;;;;5031500;28;20405;-70
2022/03/27 06:30:24;;;;;;;7.20;1.57;;;13.50;99.90;;;;;;5030123;28;20410;-69
2022/03/27 06:32:51;;;;;;;2.10;1.90;;;13.90;99.90;;;;;;5031103;28;20418;-69
2022/03/27 06:35:17;;;;;;;2.37;1.63;;;14.30;99.90;;;;;;5031702;28;20440;-69
2022/03/27 06:37:43;;;;;;;2.03;1.93;;;14.60;99.90;;;;;;5034723;28;20951;-70
2022/03/27 06:40:12;;;;;;;4.00;3.33;;;15.00;99.90;;;;;;5034743;28;20648;-70
2022/03/27 06:42:39;;;;;;;4.37;3.97;;;15.40;99.90;;;;;;5034375;28;20434;-69
2022/03/27 06:45:05;;;;;;;2.70;2.30;;;15.80;99.90;;;;;;5034591;28;20473;-69
2022/03/27 06:47:32;;;;;;;2.60;2.17;;;16.00;99.90;;;;;;5034659;28;20402;-69
2022/03/27 06:49:58;;;;;;;2.63;1.73;;;16.00;99.90;;;;;;5034580;28;20406;-70
2022/03/27 06:52:26;;;;;;;1.23;1.03;;;15.90;99.90;;;;;;5034253;28;20398;-70
2022/03/27 06:54:52;;;;;;;2.13;1.60;;;15.70;99.90;;;;;;5034231;28;20456;-70
2022/03/27 06:57:17;;;;;;;2.23;1.63;;;15.60;99.90;;;;;;5034495;28;20449;-69
2022/03/27 07:05:12;;;;;;;8.20;2.23;;;15.30;99.90;;;;;;5034473;28;20429;-69
2022/03/27 07:07:38;;;;;;;2.87;1.60;;;15.30;99.90;;;;;;5034219;28;20460;-70
2022/03/27 07:10:05;;;;;;;2.13;1.90;;;15.30;99.90;;;;;;5032906;28;20415;-69
2022/03/27 07:12:30;;;;;;;4.60;1.77;;;15.20;99.90;;;;;;5033996;28;20409;-70
2022/03/27 07:14:57;;;;;;;4.27;2.37;;;15.20;99.90;;;;;;5033975;28;20430;-70
2022/03/27 07:17:23;;;;;;;1.70;1.60;;;15.30;99.90;;;;;;5034061;28;20188;-70
2022/03/27 07:19:49;;;;;;;3.63;1.57;;;15.40;99.90;;;;;;5034017;28;20502;-70
2022/03/27 07:22:14;;;;;;;3.47;1.77;;;15.50;99.90;;;;;;5033727;28;20892;-70
2022/03/27 07:24:41;;;;;;;4.60;2.07;;;15.60;99.90;;;;;;5033850;28;20184;-69
2022/03/27 07:27:08;;;;;;;8.43;2.27;;;15.70;99.90;;;;;;5033872;28;20398;-70
2022/03/27 07:29:35;;;;;;;6.93;2.00;;;15.90;99.90;;;;;;5033858;28;20411;-69
2022/03/27 07:32:07;;;;;;;11.13;2.77;;;16.10;99.90;;;;;;5033500;28;20467;-69
2022/03/27 07:34:34;;;;;;;5.97;2.73;;;16.40;99.90;;;;;;5033484;28;20804;-70
2022/03/27 07:36:59;;;;;;;4.50;3.80;;;16.70;99.90;;;;;;5033625;28;20935;-69
2022/03/27 07:39:25;;;;;;;3.20;1.80;;;17.00;99.90;;;;;;5033760;28;20482;-69
2022/03/27 07:41:51;;;;;;;7.13;1.50;;;17.30;99.90;;;;;;5033342;28;20301;-70
2022/03/27 07:44:16;;;;;;;4.40;2.77;;;17.80;99.90;;;;;;5033538;28;20342;-70
2022/03/27 07:46:42;;;;;;;2.70;2.47;;;18.10;99.90;;;;;;5033074;28;20178;-69
2022/03/27 07:49:09;;;;;;;12.87;3.70;;;18.30;99.90;;;;;;5033431;28;20629;-70
2022/03/27 07:51:34;;;;;;;3.30;1.60;;;18.60;99.90;;;;;;5032984;28;20655;-70
2022/03/27 07:54:01;;;;;;;2.40;1.87;;;18.90;99.90;;;;;;5033098;28;20418;-69
2022/03/27 07:56:27;;;;;;;4.37;3.07;;;19.30;99.90;;;;;;5033291;28;20168;-70
2022/03/27 07:58:52;;;;;;;3.20;1.80;;;19.70;99.90;;;;;;5033301;28;20448;-70
2022/03/27 08:01:18;;;;;;;5.93;3.57;;;20.40;99.90;;;;;;5032927;28;20663;-70
2022/03/27 08:03:44;;;;;;;3.33;2.70;;;21.20;99.90;;;;;;5033221;28;20164;-70
2022/03/27 08:06:10;;;;;;;4.80;2.90;;;21.90;99.90;;;;;;5032994;28;20198;-70
2022/03/27 08:08:35;;;;;;;3.87;2.10;;;22.60;99.90;;;;;;5033100;28;20854;-70
2022/03/27 08:11:01;;;;;;;3.40;2.50;;;23.20;99.90;;;;;;5032791;28;20200;-68
2022/03/27 08:13:27;;;;;;;4.00;3.33;;;23.90;99.90;;;;;;5032995;28;20560;-68
2022/03/27 08:15:53;;;;;;;2.80;2.60;;;24.20;95.50;;;;;;5032898;28;20426;-70
2022/03/27 08:18:18;;;;;;;4.00;2.50;;;24.40;92.50;;;;;;5032838;28;20192;-68
2022/03/27 08:20:44;;;;;;;4.60;3.57;;;25.00;90.80;;;;;;5032736;28;20903;-71
2022/03/27 08:23:10;;;;;;;3.40;2.50;;;25.70;85.90;;;;;;5032923;28;20172;-71
2022/03/27 08:28:21;;;;;;;5.33;2.60;;;26.60;77.20;;;;;;5032723;28;20914;-68
2022/03/27 08:30:47;;;;;;;7.03;2.87;;;27.00;72.40;;;;;;5032580;28;20432;-70
2022/03/27 08:33:14;;;;;;;6.57;2.97;;;27.80;69.60;;;;;;5032543;28;20440;-68
2022/03/27 08:35:41;;;;;;;4.50;2.90;;;28.70;67.10;;;;;;5032550;28;20418;-68
2022/03/27 08:38:08;;;;;;;2.90;1.90;;;29.70;62.50;;;;;;5032552;28;20461;-69
2022/03/27 08:40:36;;;;;;;3.33;3.03;;;30.80;59.60;;;;;;5032525;28;20395;-69
2022/03/27 08:43:01;;;;;;;5.17;3.67;;;31.70;57.10;;;;;;5032195;28;20415;-69
2022/03/27 08:45:28;;;;;;;4.17;2.50;;;32.50;54.70;;;;;;5032403;28;20777;-69
2022/03/27 08:47:54;;;;;;;3.83;3.37;;;33.30;51.90;;;;;;5032483;28;20159;-69
2022/03/27 08:50:34;;;;;;;3.33;2.73;;;33.90;49.60;;;;;;5032303;28;20398;-69
2022/03/27 08:53:05;;;;;;;2.47;2.27;;;34.50;47.70;;;;;;5032123;28;20413;-70
2022/03/27 08:55:39;;;;;;;3.57;2.70;;;35.00;46.30;;;;;;5030777;28;20802;-69
2022/03/27 08:58:10;;;;;;;3.37;3.07;;;35.40;45.40;;;;;;5031457;28;20475;-69
2022/03/27 09:00:35;;;;;;;3.87;3.50;;;35.70;44.40;;;;;;5030986;28;20826;-69
2022/03/27 09:03:03;;;;;;;5.47;3.50;;;35.90;43.40;;;;;;5031978;28;20406;-69
2022/03/27 09:05:29;;;;;;;2.90;2.60;;;36.10;43.00;;;;;;5031953;28;20184;-69
2022/03/27 09:07:56;;;;;;;3.17;2.70;;;36.20;42.50;;;;;;5032070;28;20412;-69
2022/03/27 09:10:23;;;;;;;4.77;3.50;;;36.20;42.20;;;;;;5032111;28;20534;-69
2022/03/27 09:12:51;;;;;;;7.80;3.20;;;36.50;42.00;;;;;;5031770;28;20410;-69
2022/03/27 09:15:19;;;;;;;7.43;3.40;;;37.00;41.70;;;;;;5031996;28;20832;-70
2022/03/27 09:18:06;;;;;;;3.83;3.30;;;37.40;41.30;;;;;;5031918;28;20480;-69
2022/03/27 09:20:46;;;;;;;3.83;2.90;;;37.70;40.40;;;;;;5031956;28;20802;-70
2022/03/27 09:23:26;;;;;;;4.23;3.83;;;38.10;39.60;;;;;;5031645;28;20766;-69
2022/03/27 09:25:59;;;;;;;4.40;2.73;;;38.50;39.20;;;;;;5031908;28;20469;-69
2022/03/27 09:28:42;;;;;;;2.93;2.73;;;39.00;38.80;;;;;;5031920;28;20445;-70
2022/03/27 09:31:13;;;;;;;3.40;3.10;;;39.30;38.30;;;;;;5031634;28;20406;-70
2022/03/27 09:33:52;;;;;;;3.57;3.10;;;39.70;37.70;;;;;;5031870;28;20403;-70
2022/03/27 09:36:34;;;;;;;4.40;4.00;;;40.00;37.60;;;;;;5031895;28;20459;-70
2022/03/27 09:39:06;;;;;;;4.63;3.40;;;40.40;37.20;;;;;;5031936;28;20437;-70
2022/03/27 09:41:39;;;;;;;4.67;4.27;;;40.80;36.60;;;;;;5031581;28;20433;-70
2022/03/27 09:44:08;;;;;;;4.17;3.47;;;41.00;36.10;;;;;;5031792;28;20406;-70
2022/03/27 09:46:55;;;;;;;3.97;3.67;;;41.30;36.20;;;;;;5031753;28;20993;-70
2022/03/27 09:49:39;;;;;;;4.07;3.33;;;41.50;35.40;;;;;;5031617;28;20477;-70
2022/03/27 09:52:13;;;;;;;3.70;3.40;;;41.80;34.90;;;;;;5031480;28;20745;-71
2022/03/27 09:54:48;;;;;;;5.80;3.50;;;41.90;34.50;;;;;;5030195;28;20671;-70
2022/03/27 09:57:35;;;;;;;4.20;3.73;;;42.20;34.50;;;;;;5031527;28;20449;-70
2022/03/27 10:00:14;;;;;;;4.33;4.00;;;42.40;34.30;;;;;;5031775;28;20402;-71
2022/03/27 10:02:41;;;;;;;4.27;3.40;;;42.60;34.20;;;;;;5031471;28;20445;-70
2022/03/27 10:05:11;;;;;;;5.17;4.67;;;42.90;33.90;;;;;;5031515;28;20773;-70
2022/03/27 10:07:41;;;;;;;4.17;3.53;;;43.30;33.90;;;;;;5031614;28;20398;-70
2022/03/27 10:10:15;;;;;;;4.67;4.00;;;43.60;33.40;;;;;;5034668;28;20402;-70
2022/03/27 10:12:44;;;;;;;4.20;3.80;;;43.20;33.60;;;;;;5035133;28;20419;-70
2022/03/27 10:15:12;;;;;;;3.80;3.27;;;42.70;33.40;;;;;;5035085;28;20454;-70
2022/03/27 10:17:39;;;;;;;3.73;3.40;;;42.80;33.60;;;;;;5035161;28;20413;-70
2022/03/27 10:20:09;;;;;;;4.63;4.20;;;43.10;33.40;;;;;;5035085;28;20760;-70
2022/03/27 10:22:39;;;;;;;4.47;3.90;;;43.50;33.00;;;;;;5034655;28;20402;-71
2022/03/27 10:25:08;;;;;;;3.40;3.10;;;43.90;32.50;;;;;;5035045;28;20476;-70
2022/03/27 10:27:35;;;;;;;4.90;4.47;;;44.40;32.60;;;;;;5035146;28;20512;-71
2022/03/27 10:30:03;;;;;;;4.47;3.83;;;44.90;31.90;;;;;;5035093;28;20404;-71
2022/03/27 10:32:29;;;;;;;4.03;3.60;;;45.30;31.50;;;;;;5034706;28;20381;-70
2022/03/27 10:35:17;;;;;;;4.20;3.80;;;45.70;32.00;;;;;;5034550;28;20400;-70
2022/03/27 10:38:15;;;;;;;3.60;3.30;;;46.30;31.10;;;;;;5034884;28;20509;-70
2022/03/27 10:41:04;;;;;;;3.70;3.40;;;46.90;30.80;;;;;;5033660;28;20491;-71
2022/03/27 10:44:00;;;;;;;3.97;3.63;;;47.40;30.40;;;;;;5034599;28;20388;-70
2022/03/27 10:46:27;;;;;;;5.17;3.90;;;47.80;30.30;;;;;;5034812;28;20381;-70
2022/03/27 10:49:08;;;;;;;5.00;4.50;;;48.20;29.80;;;;;;5034388;28;20373;-71
2022/03/27 10:51:36;;;;;;;4.43;4.00;;;48.60;29.50;;;;;;5034327;28;20373;-71
2022/03/27 10:54:14;;;;;;;3.80;3.40;;;49.00;29.00;;;;;;5034188;28;20421;-70
2022/03/27 10:56:44;;;;;;;5.40;4.30;;;49.10;28.70;;;;;;5034135;28;20381;-71
2022/03/27 10:59:18;;;;;;;5.37;4.87;;;49.30;28.50;;;;;;5034251;28;20393;-70
2022/03/27 11:01:47;;;;;;;7.10;4.83;;;49.60;28.30;;;;;;5033390;28;20396;-71
2022/03/27 11:04:21;;;;;;;3.93;3.53;;;49.80;28.20;;;;;;5033612;28;20411;-71
2022/03/27 11:06:49;;;;;;;3.93;3.63;;;50.00;28.60;;;;;;5033710;28;20473;-70
2022/03/27 11:09:33;;;;;;;4.83;3.83;;;50.30;27.90;;;;;;5033951;28;20763;-70
2022/03/27 11:12:00;;;;;;;3.50;3.20;;;50.70;28.00;;;;;;5033721;28;20409;-70
2022/03/27 11:15:00;;;;;;;4.07;3.80;;;50.90;27.70;;;;;;5034167;28;21009;-71
2022/03/27 11:17:33;;;;;;;5.37;4.97;;;51.30;27.70;;;;;;5033756;28;20373;-71
2022/03/27 11:19:59;;;;;;;3.83;3.53;;;51.60;27.30;;;;;;5033146;28;20373;-71
2022/03/27 11:22:47;;;;;;;3.80;3.50;;;51.80;27.40;;;;;;5033385;28;20385;-71
2022/03/27 11:25:31;;;;;;;3.73;3.43;;;52.10;27.40;;;;;;5033593;28;20993;-71
2022/03/27 11:28:16;;;;;;;3.30;3.00;;;52.30;27.20;;;;;;5033737;28;20428;-70
2022/03/27 11:30:48;;;;;;;3.30;3.10;;;52.60;26.90;;;;;;5033583;28;20425;-71
2022/03/27 11:33:16;;;;;;;3.77;3.40;;;52.80;26.60;;;;;;5033228;28;20430;-71
2022/03/27 11:36:04;;;;;;;5.30;4.90;;;53.00;26.60;;;;;;5033306;28;20415;-71
2022/03/27 11:38:46;;;;;;;5.17;4.67;;;53.00;26.50;;;;;;5033435;28;20402;-71
2022/03/27 11:41:43;;;;;;;3.97;3.63;;;53.30;26.70;;;;;;5033192;28;20405;-71
2022/03/27 11:44:22;;;;;;;4.27;3.97;;;53.80;26.40;;;;;;5033188;28;20381;-71
2022/03/27 11:46:48;;;;;;;4.93;3.87;;;54.00;26.00;;;;;;5033385;28;20570;-70
2022/03/27 11:49:14;;;;;;;5.47;4.97;;;52.90;25.80;;;;;;5033248;28;20381;-71
2022/03/27 11:51:40;;;;;;;5.00;4.60;;;52.50;26.30;;;;;;5032841;28;20381;-71
2022/03/27 11:54:20;;;;;;;5.03;4.63;;;52.60;26.60;;;;;;5033147;28;20437;-71
2022/03/27 11:57:01;;;;;;;4.10;3.30;;;53.10;26.40;;;;;;5031946;28;20592;-71
2022/03/27 11:59:27;;;;;;;4.30;3.90;;;53.80;26.20;;;;;;5033147;28;20402;-71
2022/03/27 12:01:57;;;;;;;4.23;3.83;;;54.30;26.00;;;;;;5032780;28;20377;-71
2022/03/27 12:04:26;;;;;;;5.37;4.67;;;54.10;25.70;;;;;;5032849;28;20461;-71
2022/03/27 12:07:02;;;;;;;4.83;4.37;;;53.10;25.60;;;;;;5032918;28;20446;-70
2022/03/27 12:09:29;;;;;;;4.80;4.30;;;52.80;25.90;;;;;;5032885;28;20545;-71
2022/03/27 12:12:11;;;;;;;5.57;3.97;;;53.20;25.90;;;;;;5032533;28;20930;-71
2022/03/27 12:14:57;;;;;;;4.83;4.33;;;53.60;25.70;;;;;;5032620;28;20426;-72
2022/03/27 12:17:28;;;;;;;3.23;3.03;;;54.00;25.70;;;;;;5032760;28;20373;-71
2022/03/27 12:20:11;;;;;;;5.50;4.50;;;54.50;25.60;;;;;;5032801;28;20404;-71
2022/03/27 12:22:49;;;;;;;4.60;4.20;;;55.00;25.40;;;;;;5032312;28;20818;-71
2022/03/27 12:25:14;;;;;;;4.27;3.87;;;55.40;25.20;;;;;;5032361;28;20472;-71
2022/03/27 12:30:35;;;;;;;3.70;3.43;;;56.00;25.00;;;;;;5032786;28;20178;-71
2022/03/27 12:33:02;;;;;;;4.00;3.60;;;56.30;25.00;;;;;;5032100;28;20755;-71
2022/03/27 12:35:30;;;;;;;4.27;3.97;;;56.60;24.90;;;;;;5032019;28;20512;-71
2022/03/27 12:37:56;;;;;;;4.70;4.30;;;56.80;24.60;;;;;;5032264;28;20409;-71
2022/03/27 12:40:21;;;;;;;4.50;4.10;;;56.90;24.60;;;;;;5032158;28;20398;-72
2022/03/27 12:43:08;;;;;;;5.73;4.20;;;57.10;24.30;;;;;;5031931;28;20168;-71
2022/03/27 12:45:36;;;;;;;3.73;3.53;;;57.20;24.40;;;;;;5031961;28;20195;-71
2022/03/27 12:48:20;;;;;;;3.77;3.47;;;57.30;24.50;;;;;;5032090;28;20441;-71
2022/03/27 12:50:54;;;;;;;4.27;3.97;;;57.40;24.30;;;;;;5032146;28;20373;-71
2022/03/27 12:53:22;;;;;;;5.27;4.87;;;57.50;24.10;;;;;;5031877;28;20397;-71
2022/03/27 12:55:54;;;;;;;4.50;4.13;;;57.50;24.20;;;;;;5031930;28;20429;-71
2022/03/27 12:58:34;;;;;;;3.77;3.47;;;57.00;24.00;;;;;;5031903;28;20391;-71
2022/03/27 13:01:09;;;;;;;3.90;3.60;;;56.80;24.20;;;;;;5031834;28;20390;-71
2022/03/27 13:03:36;;;;;;;4.40;3.93;;;57.10;24.40;;;;;;5032048;28;20529;-71
2022/03/27 13:06:04;;;;;;;4.60;3.70;;;57.30;24.20;;;;;;5031663;28;20788;-71
2022/03/27 13:08:40;;;;;;;4.20;3.87;;;57.70;24.00;;;;;;5031667;28;20450;-71
2022/03/27 13:11:07;;;;;;;4.00;3.70;;;57.90;23.90;;;;;;5031761;28;20397;-71